WWA28 KJFK-TXKF
Flight info
| Callsign | WWA28 |
|---|---|
| Flight time | N/A |
| Altitude | 39000 |
| Route | SHIPP Y487 KINGG/M084F390 DCT KINER L461 BOVIC MOMOM1 |
| Aircraft | B789/H-SDE1E2E3FGHIJ2J3J4J5M1RWXY/LB1D1 |
Departure
| Time | N/A |
|---|---|
| Airport | John F. Kennedy International Airport (KJFK) |
Arrival
| Time | 2026-05-06 03:16 |
|---|---|
| Airport | L.F. Wade International Airport (TXKF) |
| Time | Latitude | Longitude | Altitude | Speed | Heading |
|---|---|---|---|---|---|
| 2026-05-06 02:48 | 34.26046 | -66.17834 | 26458 ft | 460 kts | 147° |
| 2026-05-06 02:49 | 34.23382 | -66.15728 | 25916 ft | 456 kts | 147° |
| 2026-05-06 02:49 | 34.20734 | -66.13636 | 25354 ft | 452 kts | 148° |
| 2026-05-06 02:49 | 34.18111 | -66.11565 | 24816 ft | 449 kts | 148° |
| 2026-05-06 02:49 | 34.15500 | -66.09505 | 24264 ft | 445 kts | 148° |
| 2026-05-06 02:50 | 34.12923 | -66.07473 | 23725 ft | 442 kts | 148° |
| 2026-05-06 02:50 | 34.10358 | -66.05453 | 23162 ft | 438 kts | 148° |
| 2026-05-06 02:50 | 34.07814 | -66.03451 | 22622 ft | 434 kts | 148° |
| 2026-05-06 02:50 | 34.05286 | -66.01462 | 22074 ft | 431 kts | 148° |
| 2026-05-06 02:51 | 34.02787 | -65.99498 | 21523 ft | 427 kts | 148° |
| 2026-05-06 02:51 | 34.00309 | -65.97552 | 20972 ft | 424 kts | 148° |
| 2026-05-06 02:51 | 33.97851 | -65.95623 | 20424 ft | 420 kts | 148° |
| 2026-05-06 02:51 | 33.95412 | -65.93709 | 19878 ft | 417 kts | 148° |
| 2026-05-06 02:52 | 33.93018 | -65.91834 | 19329 ft | 413 kts | 148° |
| 2026-05-06 02:52 | 33.90616 | -65.89952 | 18788 ft | 410 kts | 148° |
| 2026-05-06 02:52 | 33.88235 | -65.88088 | 18237 ft | 407 kts | 148° |
| 2026-05-06 02:52 | 33.85869 | -65.86237 | 17686 ft | 403 kts | 148° |
| 2026-05-06 02:53 | 33.83525 | -65.84405 | 17134 ft | 400 kts | 148° |
| 2026-05-06 02:53 | 33.81198 | -65.82587 | 16583 ft | 397 kts | 148° |
| 2026-05-06 02:53 | 33.78889 | -65.80785 | 16040 ft | 394 kts | 148° |
| 2026-05-06 02:53 | 33.76601 | -65.79000 | 15489 ft | 390 kts | 148° |
| 2026-05-06 02:54 | 33.74329 | -65.77228 | 14940 ft | 387 kts | 148° |
| 2026-05-06 02:54 | 33.72078 | -65.75474 | 14389 ft | 384 kts | 148° |
| 2026-05-06 02:54 | 33.69843 | -65.73734 | 13839 ft | 381 kts | 148° |
| 2026-05-06 02:54 | 33.67625 | -65.72008 | 13287 ft | 378 kts | 148° |
| 2026-05-06 02:55 | 33.65428 | -65.70299 | 12740 ft | 375 kts | 148° |
| 2026-05-06 02:55 | 33.63248 | -65.68605 | 12199 ft | 372 kts | 148° |
| 2026-05-06 02:55 | 33.61084 | -65.66925 | 11645 ft | 369 kts | 148° |
| 2026-05-06 02:55 | 33.58937 | -65.65258 | 11095 ft | 366 kts | 148° |
| 2026-05-06 02:56 | 33.56813 | -65.63610 | 10545 ft | 363 kts | 148° |
| 2026-05-06 02:56 | 33.54696 | -65.61969 | 9994 ft | 360 kts | 148° |
| 2026-05-06 02:56 | 33.52623 | -65.60362 | 9450 ft | 357 kts | 148° |
| 2026-05-06 02:56 | 33.50540 | -65.58749 | 8900 ft | 354 kts | 148° |
| 2026-05-06 02:57 | 33.48474 | -65.57151 | 8349 ft | 352 kts | 148° |
| 2026-05-06 02:57 | 33.46428 | -65.55567 | 7800 ft | 349 kts | 148° |
| 2026-05-06 02:57 | 33.44399 | -65.53998 | 7249 ft | 346 kts | 148° |
| 2026-05-06 02:57 | 33.42375 | -65.52434 | 6699 ft | 344 kts | 148° |
| 2026-05-06 02:58 | 33.40367 | -65.50884 | 6309 ft | 338 kts | 148° |
| 2026-05-06 02:58 | 33.38402 | -65.49367 | 6259 ft | 338 kts | 148° |
| 2026-05-06 02:58 | 33.36415 | -65.47836 | 6261 ft | 339 kts | 148° |
| 2026-05-06 02:58 | 33.34441 | -65.46313 | 6522 ft | 336 kts | 148° |
| 2026-05-06 02:59 | 33.32539 | -65.44845 | 6754 ft | 311 kts | 148° |
| 2026-05-06 02:59 | 33.30797 | -65.43502 | 6960 ft | 288 kts | 148° |
| 2026-05-06 02:59 | 33.29152 | -65.42238 | 7168 ft | 281 kts | 148° |
| 2026-05-06 02:59 | 33.27512 | -65.40979 | 7385 ft | 280 kts | 148° |
| 2026-05-06 03:00 | 33.25868 | -65.39714 | 7614 ft | 282 kts | 148° |
| 2026-05-06 03:00 | 33.24215 | -65.38443 | 7850 ft | 283 kts | 148° |
| 2026-05-06 03:00 | 33.22553 | -65.37166 | 8021 ft | 287 kts | 148° |
| 2026-05-06 03:00 | 33.20861 | -65.35866 | 8018 ft | 288 kts | 148° |
| 2026-05-06 03:01 | 33.19185 | -65.34579 | 8017 ft | 286 kts | 148° |
| 2026-05-06 03:01 | 33.17512 | -65.33295 | 8016 ft | 286 kts | 148° |
| 2026-05-06 03:01 | 33.15838 | -65.32012 | 8015 ft | 286 kts | 148° |
| 2026-05-06 03:01 | 33.14166 | -65.30731 | 8016 ft | 285 kts | 148° |
| 2026-05-06 03:02 | 33.12491 | -65.29446 | 8017 ft | 285 kts | 148° |
| 2026-05-06 03:02 | 33.10819 | -65.28166 | 8020 ft | 286 kts | 148° |
| 2026-05-06 03:02 | 33.09145 | -65.26885 | 8018 ft | 285 kts | 148° |
| 2026-05-06 03:02 | 33.07474 | -65.25606 | 8017 ft | 286 kts | 148° |
| 2026-05-06 03:03 | 33.05763 | -65.24421 | 8010 ft | 283 kts | 161° |
| 2026-05-06 03:03 | 33.03887 | -65.23734 | 8029 ft | 283 kts | 162° |
| 2026-05-06 03:03 | 33.02028 | -65.22931 | 8029 ft | 284 kts | 161° |
| 2026-05-06 03:03 | 33.00165 | -65.22135 | 8029 ft | 284 kts | 162° |
| 2026-05-06 03:04 | 32.98292 | -65.21379 | 8029 ft | 284 kts | 163° |
| 2026-05-06 03:04 | 32.96423 | -65.20631 | 8034 ft | 284 kts | 162° |
| 2026-05-06 03:04 | 32.94553 | -65.19871 | 8030 ft | 284 kts | 162° |
| 2026-05-06 03:04 | 32.92691 | -65.19110 | 8033 ft | 283 kts | 162° |
| 2026-05-06 03:05 | 32.90827 | -65.18353 | 8033 ft | 283 kts | 162° |
| 2026-05-06 03:05 | 32.88962 | -65.17597 | 8027 ft | 283 kts | 162° |
| 2026-05-06 03:05 | 32.87120 | -65.16849 | 8025 ft | 283 kts | 162° |
| 2026-05-06 03:05 | 32.85258 | -65.16093 | 8025 ft | 283 kts | 162° |
| 2026-05-06 03:06 | 32.83390 | -65.15336 | 8024 ft | 283 kts | 162° |
| 2026-05-06 03:06 | 32.81524 | -65.14579 | 8022 ft | 283 kts | 162° |
| 2026-05-06 03:06 | 32.79661 | -65.13824 | 8022 ft | 283 kts | 162° |
| 2026-05-06 03:06 | 32.77793 | -65.13068 | 8022 ft | 283 kts | 162° |
| 2026-05-06 03:07 | 32.75931 | -65.12314 | 8021 ft | 283 kts | 162° |
| 2026-05-06 03:07 | 32.74066 | -65.11559 | 8020 ft | 282 kts | 162° |
| 2026-05-06 03:07 | 32.72204 | -65.10806 | 8019 ft | 283 kts | 162° |
| 2026-05-06 03:07 | 32.70336 | -65.10050 | 8019 ft | 282 kts | 162° |
| 2026-05-06 03:08 | 32.68476 | -65.09299 | 8018 ft | 283 kts | 162° |
| 2026-05-06 03:08 | 32.66614 | -65.08547 | 8019 ft | 283 kts | 162° |
| 2026-05-06 03:08 | 32.64749 | -65.07794 | 8020 ft | 283 kts | 162° |
| 2026-05-06 03:08 | 32.62907 | -65.07050 | 8021 ft | 283 kts | 162° |
| 2026-05-06 03:09 | 32.61039 | -65.06297 | 8021 ft | 284 kts | 162° |
| 2026-05-06 03:09 | 32.59170 | -65.05543 | 8022 ft | 284 kts | 162° |
| 2026-05-06 03:09 | 32.57297 | -65.04788 | 8024 ft | 284 kts | 162° |
| 2026-05-06 03:09 | 32.55425 | -65.04034 | 8024 ft | 284 kts | 162° |
| 2026-05-06 03:10 | 32.53555 | -65.03280 | 8026 ft | 284 kts | 163° |
| 2026-05-06 03:10 | 32.51683 | -65.02527 | 8028 ft | 284 kts | 163° |
| 2026-05-06 03:10 | 32.49804 | -65.01771 | 7878 ft | 289 kts | 162° |
| 2026-05-06 03:10 | 32.47880 | -65.00998 | 7260 ft | 294 kts | 162° |
| 2026-05-06 03:11 | 32.45931 | -65.00214 | 6625 ft | 297 kts | 162° |
| 2026-05-06 03:11 | 32.43969 | -64.99404 | 5990 ft | 299 kts | 158° |
| 2026-05-06 03:11 | 32.42294 | -64.97998 | 5345 ft | 291 kts | 132° |
| 2026-05-06 03:11 | 32.41299 | -64.96029 | 4686 ft | 272 kts | 108° |
| 2026-05-06 03:12 | 32.40883 | -64.93911 | 4017 ft | 257 kts | 102° |
| 2026-05-06 03:12 | 32.40540 | -64.91869 | 3342 ft | 249 kts | 101° |
| 2026-05-06 03:12 | 32.40220 | -64.89910 | 3011 ft | 230 kts | 102° |
| 2026-05-06 03:12 | 32.39925 | -64.88189 | 2984 ft | 206 kts | 102° |
| 2026-05-06 03:13 | 32.39641 | -64.86560 | 3047 ft | 197 kts | 102° |
| 2026-05-06 03:13 | 32.39342 | -64.84824 | 3065 ft | 233 kts | 102° |
| 2026-05-06 03:13 | 32.39030 | -64.82979 | 3023 ft | 223 kts | 102° |
| 2026-05-06 03:13 | 32.38742 | -64.81218 | 2275 ft | 219 kts | 101° |
| 2026-05-06 03:14 | 32.38449 | -64.79411 | 1673 ft | 212 kts | 102° |
| 2026-05-06 03:14 | 32.38141 | -64.77843 | 1676 ft | 186 kts | 104° |
| 2026-05-06 03:14 | 32.37854 | -64.76402 | 1518 ft | 173 kts | 103° |
| 2026-05-06 03:14 | 32.37627 | -64.75036 | 1194 ft | 165 kts | 100° |
| 2026-05-06 03:15 | 32.37417 | -64.73719 | 777 ft | 163 kts | 102° |
| 2026-05-06 03:15 | 32.37187 | -64.72408 | 592 ft | 158 kts | 103° |
| 2026-05-06 03:15 | 32.36970 | -64.71162 | 375 ft | 151 kts | 101° |
| 2026-05-06 03:15 | 32.36771 | -64.69934 | 164 ft | 155 kts | 102° |
| 2026-05-06 03:16 | 32.36545 | -64.68690 | 38 ft | 149 kts | 99° |
| 2026-05-06 03:16 | 32.36372 | -64.67677 | 30 ft | 100 kts | 101° |
| 2026-05-06 03:16 | 32.36261 | -64.67028 | 33 ft | 59 kts | 101° |
| 2026-05-06 03:16 | 32.36204 | -64.66677 | 34 ft | 29 kts | 102° |
| 2026-05-06 03:17 | 32.36169 | -64.66495 | 34 ft | 21 kts | 102° |
| 2026-05-06 03:17 | 32.36166 | -64.66380 | 34 ft | 11 kts | 70° |
| 2026-05-06 03:17 | 32.36214 | -64.66337 | 33 ft | 6 kts | 0° |
| 2026-05-06 03:17 | 32.36250 | -64.66362 | 33 ft | 9 kts | 313° |
| 2026-05-06 03:18 | 32.36284 | -64.66428 | 33 ft | 11 kts | 296° |
| 2026-05-06 03:18 | 32.36315 | -64.66536 | 33 ft | 17 kts | 283° |
| 2026-05-06 03:18 | 32.36342 | -64.66688 | 33 ft | 20 kts | 282° |
| 2026-05-06 03:18 | 32.36371 | -64.66854 | 33 ft | 21 kts | 281° |
| 2026-05-06 03:19 | 32.36400 | -64.67025 | 33 ft | 21 kts | 281° |
| 2026-05-06 03:19 | 32.36429 | -64.67199 | 32 ft | 21 kts | 280° |
| 2026-05-06 03:19 | 32.36433 | -64.67224 | 32 ft | 21 kts | 281° |